createdAt,value
2023-05-05T00:00:33.944Z,3.00
2023-05-05T00:03:02.471Z,3.30
2023-05-05T00:05:32.545Z,3.35
2023-05-05T00:08:00.944Z,3.20
2023-05-05T00:10:29.481Z,2.83
2023-05-05T00:12:57.876Z,3.05
2023-05-05T00:15:27.502Z,4.13
2023-05-05T00:17:56.406Z,2.88
2023-05-05T00:20:24.852Z,3.45
2023-05-05T00:22:54.588Z,3.13
2023-05-05T00:25:22.976Z,3.00
2023-05-05T00:27:51.371Z,2.55
2023-05-05T00:30:20.246Z,3.17
2023-05-05T00:32:49.558Z,2.88
2023-05-05T00:35:18.067Z,3.22
2023-05-05T00:37:46.403Z,2.95
2023-05-05T00:40:17.442Z,2.95
2023-05-05T00:42:47.147Z,6.13
2023-05-05T00:45:16.857Z,3.53
2023-05-05T00:47:49.180Z,3.40
2023-05-05T00:50:23.781Z,3.10
2023-05-05T00:52:52.732Z,2.90
2023-05-05T00:55:22.797Z,2.65
2023-05-05T00:57:51.237Z,4.43
2023-05-05T01:00:19.870Z,2.85
2023-05-05T01:02:48.364Z,2.75
2023-05-05T01:05:17.015Z,2.88
2023-05-05T01:08:05.102Z,3.25
2023-05-05T01:10:38.287Z,2.60
2023-05-05T01:13:22.492Z,2.55
2023-05-05T01:15:53.668Z,2.80
2023-05-05T01:18:29.446Z,3.28
2023-05-05T01:21:00.968Z,2.72
2023-05-05T01:23:54.885Z,2.85
2023-05-05T01:26:39.002Z,3.15
2023-05-05T01:29:39.480Z,4.22
2023-05-05T01:32:11.252Z,3.40
2023-05-05T01:34:43.309Z,3.45
2023-05-05T01:37:13.447Z,2.47
2023-05-05T01:39:42.324Z,3.83
2023-05-05T01:42:14.028Z,2.83
2023-05-05T01:44:44.628Z,3.00
2023-05-05T01:47:17.150Z,6.68
2023-05-05T01:49:47.350Z,3.15
2023-05-05T01:52:16.093Z,2.83
2023-05-05T01:54:44.859Z,3.13
2023-05-05T01:57:13.233Z,2.92
2023-05-05T01:59:41.758Z,2.70
2023-05-05T02:02:12.629Z,2.83
2023-05-05T02:04:43.747Z,2.92
2023-05-05T02:07:12.676Z,2.63
2023-05-05T02:09:41.052Z,5.30
2023-05-05T02:12:09.773Z,3.00
2023-05-05T02:14:38.183Z,2.50
2023-05-05T02:17:06.774Z,2.70
2023-05-05T02:19:44.286Z,2.63
2023-05-05T02:22:15.633Z,2.80
2023-05-05T02:24:44.328Z,3.00
2023-05-05T02:27:12.759Z,3.83
2023-05-05T02:29:46.072Z,2.63
2023-05-05T02:32:19.573Z,2.47
2023-05-05T02:34:49.369Z,2.60
2023-05-05T02:37:23.272Z,2.65
2023-05-05T02:39:59.182Z,2.88
2023-05-05T02:42:33.599Z,2.95
2023-05-05T02:45:05.967Z,2.50
2023-05-05T02:47:36.852Z,4.68
2023-05-05T02:50:08.862Z,2.67
2023-05-05T02:52:37.455Z,2.50
2023-05-05T02:55:06.714Z,2.60
2023-05-05T02:57:39.587Z,2.80
2023-05-05T03:00:12.286Z,2.45
2023-05-05T03:02:45.962Z,2.28
2023-05-05T03:05:20.812Z,3.55
2023-05-05T03:07:55.448Z,2.75
2023-05-05T03:10:28.785Z,2.90
2023-05-05T03:12:59.416Z,2.50
2023-05-05T03:15:41.518Z,2.53
2023-05-05T03:18:11.874Z,2.50
2023-05-05T03:20:41.977Z,2.60
2023-05-05T03:23:10.473Z,2.35
2023-05-05T03:25:45.719Z,2.83
2023-05-05T03:28:14.807Z,2.40
2023-05-05T03:30:43.208Z,2.30
2023-05-05T03:33:11.966Z,2.42
2023-05-05T03:35:41.828Z,2.63
2023-05-05T03:38:10.163Z,2.40
2023-05-05T03:40:44.145Z,3.35
2023-05-05T03:43:13.433Z,2.30
2023-05-05T03:45:42.222Z,2.63
2023-05-05T03:48:10.667Z,2.13
2023-05-05T03:50:39.111Z,2.65
2023-05-05T03:53:08.887Z,2.20
2023-05-05T03:55:37.318Z,2.10
2023-05-05T03:58:05.799Z,2.47
2023-05-05T04:00:34.310Z,2.28
2023-05-05T04:03:03.096Z,3.05
2023-05-05T04:05:31.862Z,2.33
2023-05-05T04:08:00.286Z,2.83
2023-05-05T04:10:30.131Z,2.55
2023-05-05T04:13:01.398Z,2.35
2023-05-05T04:15:30.279Z,2.28
2023-05-05T04:17:58.859Z,2.63
2023-05-05T04:20:27.417Z,1.95
2023-05-05T04:22:55.905Z,2.38
2023-05-05T04:25:24.345Z,2.22
2023-05-05T04:27:54.117Z,2.78
2023-05-05T04:30:22.548Z,2.13
2023-05-05T04:32:51.088Z,2.30
2023-05-05T04:35:19.654Z,2.63
2023-05-05T04:37:48.756Z,2.60
2023-05-05T04:40:17.458Z,2.55
2023-05-05T04:42:45.917Z,2.53
2023-05-05T04:45:15.885Z,2.28
2023-05-05T04:47:44.386Z,2.33
2023-05-05T04:50:13.672Z,2.38
2023-05-05T04:52:42.139Z,2.20
2023-05-05T04:55:12.174Z,2.35
2023-05-05T04:57:40.552Z,2.30
2023-05-05T05:00:10.723Z,2.00
2023-05-05T05:02:41.745Z,2.20
2023-05-05T05:05:11.177Z,2.30
2023-05-05T05:07:39.774Z,2.25
2023-05-05T05:10:12.278Z,1.90
2023-05-05T05:12:40.705Z,6.18
2023-05-05T05:15:11.557Z,2.40
2023-05-05T05:17:41.332Z,7.72
2023-05-05T05:20:10.811Z,10.18
2023-05-05T05:22:39.384Z,31.80
2023-05-05T05:25:08.495Z,22.50
2023-05-05T05:27:36.881Z,18.63
2023-05-05T05:30:06.024Z,17.35
2023-05-05T05:32:34.651Z,15.88
2023-05-05T05:35:04.611Z,17.08
2023-05-05T05:37:33.241Z,12.60
2023-05-05T05:40:01.714Z,11.30
2023-05-05T05:42:30.214Z,10.50
2023-05-05T05:44:58.905Z,10.27
2023-05-05T05:47:28.097Z,8.27
2023-05-05T05:49:56.560Z,13.30
2023-05-05T05:52:26.450Z,8.88
2023-05-05T05:54:54.856Z,9.68
2023-05-05T05:57:24.643Z,9.88
2023-05-05T05:59:54.040Z,9.02
2023-05-05T06:02:22.473Z,10.25
2023-05-05T06:04:50.842Z,8.98
2023-05-05T06:07:19.459Z,6.75
2023-05-05T06:09:49.496Z,8.25
2023-05-05T06:12:17.973Z,10.15
2023-05-05T06:14:46.476Z,7.18
2023-05-05T06:17:14.844Z,8.85
2023-05-05T06:19:45.160Z,6.38
2023-05-05T06:22:14.757Z,6.68
2023-05-05T06:24:43.171Z,5.53
2023-05-05T06:27:12.978Z,8.95
2023-05-05T06:29:41.746Z,5.93
2023-05-05T06:32:10.194Z,5.75
2023-05-05T06:34:38.585Z,6.90
2023-05-05T06:37:06.970Z,5.03
2023-05-05T06:39:35.509Z,9.27
2023-05-05T06:42:04.230Z,3.90
2023-05-05T06:44:34.871Z,7.45
2023-05-05T06:47:03.370Z,7.20
2023-05-05T06:49:31.779Z,6.97
2023-05-05T06:52:00.492Z,6.22
2023-05-05T06:54:28.858Z,8.18
2023-05-05T06:56:59.441Z,6.20
2023-05-05T06:59:28.124Z,7.07
2023-05-05T07:01:58.142Z,6.45
2023-05-05T07:04:27.484Z,6.43
2023-05-05T07:06:58.418Z,4.90
2023-05-05T07:09:26.841Z,5.68
2023-05-05T07:11:55.229Z,8.88
2023-05-05T07:14:24.575Z,7.43
2023-05-05T07:16:53.112Z,6.30
2023-05-05T07:19:23.600Z,3.92
2023-05-05T07:21:52.229Z,5.78
2023-05-05T07:24:20.704Z,9.02
2023-05-05T07:26:49.441Z,4.93
2023-05-05T07:29:17.879Z,5.68
2023-05-05T07:31:46.528Z,4.70
2023-05-05T07:34:15.073Z,6.65
2023-05-05T07:36:45.352Z,3.38
2023-05-05T07:39:15.444Z,4.25
2023-05-05T07:41:44.308Z,3.95
2023-05-05T07:44:12.763Z,3.53
2023-05-05T07:46:42.012Z,4.45
2023-05-05T07:49:10.499Z,3.47
2023-05-05T07:51:38.923Z,7.82
2023-05-05T07:54:08.765Z,3.35
2023-05-05T07:56:37.179Z,4.95
2023-05-05T07:59:05.943Z,3.70
2023-05-05T08:01:34.457Z,5.45
2023-05-05T08:04:02.966Z,5.85
2023-05-05T08:06:32.342Z,4.93
2023-05-05T08:09:01.855Z,2.97
2023-05-05T08:11:31.766Z,3.30
2023-05-05T08:14:00.504Z,4.00
2023-05-05T08:16:28.990Z,6.35
2023-05-05T08:18:57.418Z,3.47
2023-05-05T08:21:26.328Z,4.10
2023-05-05T08:23:54.867Z,3.42
2023-05-05T08:26:23.649Z,4.75
2023-05-05T08:28:55.957Z,3.80
2023-05-05T08:31:24.388Z,5.03
2023-05-05T08:33:52.888Z,3.35
2023-05-05T08:36:21.454Z,5.82
2023-05-05T08:38:49.909Z,3.72
2023-05-05T08:41:19.057Z,4.25
2023-05-05T08:43:48.331Z,3.47
2023-05-05T08:46:18.430Z,4.82
2023-05-05T08:48:47.079Z,3.38
2023-05-05T08:51:18.759Z,4.05
2023-05-05T08:53:53.441Z,3.47
2023-05-05T08:56:22.479Z,3.38
2023-05-05T08:58:51.607Z,3.05
2023-05-05T09:01:21.906Z,2.83
2023-05-05T09:03:50.549Z,3.20
2023-05-05T09:06:19.244Z,9.73
2023-05-05T09:08:47.558Z,3.08
2023-05-05T09:11:16.158Z,2.60
2023-05-05T09:13:47.769Z,6.05
2023-05-05T09:16:16.691Z,4.28
2023-05-05T09:18:46.597Z,4.50
2023-05-05T09:21:22.140Z,3.30
2023-05-05T09:24:11.687Z,3.88
2023-05-05T09:26:42.527Z,3.75
2023-05-05T09:29:11.056Z,2.92
2023-05-05T09:31:39.678Z,4.60
2023-05-05T09:34:19.057Z,3.97
2023-05-05T09:36:49.204Z,3.95
2023-05-05T09:39:19.464Z,5.00
2023-05-05T09:41:47.995Z,3.13
2023-05-05T09:44:17.105Z,3.15
2023-05-05T09:46:52.709Z,2.88
2023-05-05T09:49:25.625Z,4.38
2023-05-05T09:51:54.440Z,7.85
2023-05-05T09:54:24.737Z,2.75
2023-05-05T09:56:53.305Z,2.75
2023-05-05T09:59:22.252Z,2.60
2023-05-05T10:01:51.249Z,9.07
2023-05-05T10:04:28.417Z,5.35
2023-05-05T10:06:57.401Z,5.20
2023-05-05T10:09:25.971Z,3.15
2023-05-05T10:11:54.941Z,2.90
2023-05-05T10:14:23.290Z,3.13
2023-05-05T10:16:53.557Z,2.83
2023-05-05T10:19:23.336Z,3.30
2023-05-05T10:21:54.081Z,2.35
2023-05-05T10:24:29.790Z,3.63
2023-05-05T10:26:59.912Z,3.05
2023-05-05T10:29:38.685Z,2.58
2023-05-05T10:32:33.533Z,2.42
2023-05-05T10:35:02.717Z,2.15
2023-05-05T10:37:32.823Z,3.13
2023-05-05T10:40:01.420Z,2.30
2023-05-05T10:42:29.950Z,2.22
2023-05-05T10:44:58.952Z,3.65
2023-05-05T10:47:27.443Z,2.70
2023-05-05T10:49:58.530Z,2.55
2023-05-05T10:52:33.505Z,2.72
2023-05-05T10:55:09.593Z,2.67
2023-05-05T10:57:41.940Z,2.60
2023-05-05T11:00:12.896Z,3.28
2023-05-05T11:02:42.484Z,2.55
2023-05-05T11:05:15.324Z,5.57
2023-05-05T11:07:45.480Z,2.15
2023-05-05T11:10:15.585Z,2.30
2023-05-05T11:13:21.967Z,2.97
2023-05-05T11:15:51.442Z,3.58
2023-05-05T11:18:37.736Z,2.15
2023-05-05T11:21:16.722Z,2.58
2023-05-05T11:23:51.129Z,4.47
2023-05-05T11:26:40.568Z,2.50
2023-05-05T11:29:08.952Z,2.72
2023-05-05T11:31:37.935Z,2.30
2023-05-05T11:34:26.878Z,2.30
2023-05-05T11:36:58.852Z,6.82
2023-05-05T11:39:42.918Z,3.78
2023-05-05T11:42:32.186Z,2.40
2023-05-05T11:45:00.836Z,2.72
2023-05-05T11:47:31.072Z,2.00
2023-05-05T11:50:17.477Z,3.53
2023-05-05T11:52:45.958Z,2.03
2023-05-05T11:55:22.135Z,2.50
2023-05-05T11:57:50.654Z,2.05
2023-05-05T12:00:20.092Z,2.65
2023-05-05T12:02:48.650Z,2.20
2023-05-05T12:05:21.303Z,2.08
2023-05-05T12:07:49.748Z,2.40
2023-05-05T12:10:25.752Z,2.20
2023-05-05T12:12:55.461Z,3.17
2023-05-05T12:15:31.419Z,3.17
2023-05-05T12:18:02.419Z,2.50
2023-05-05T12:20:33.332Z,2.35
2023-05-05T12:23:04.259Z,3.30
2023-05-05T12:25:43.215Z,2.75
2023-05-05T12:28:11.652Z,2.45
2023-05-05T12:30:40.189Z,2.40
2023-05-05T12:33:09.819Z,1.92
2023-05-05T12:35:38.285Z,2.38
2023-05-05T12:38:06.819Z,2.00
2023-05-05T12:40:47.209Z,2.25
2023-05-05T12:43:31.221Z,2.20
2023-05-05T12:46:08.612Z,1.95
2023-05-05T12:48:38.520Z,3.22
2023-05-05T12:51:21.011Z,3.47
2023-05-05T12:53:50.046Z,2.65
2023-05-05T12:56:35.149Z,2.00
2023-05-05T12:59:04.305Z,2.40
2023-05-05T13:01:32.961Z,2.70
2023-05-05T13:04:13.002Z,2.03
2023-05-05T13:06:41.733Z,3.63
2023-05-05T13:09:11.125Z,2.00
2023-05-05T13:11:41.260Z,2.95
2023-05-05T13:14:09.755Z,2.63
2023-05-05T13:16:38.386Z,2.10
2023-05-05T13:19:06.758Z,5.38
2023-05-05T13:21:35.138Z,2.28
2023-05-05T13:26:35.007Z,2.55
2023-05-05T13:29:05.159Z,1.95
2023-05-05T13:31:33.836Z,3.13
2023-05-05T13:34:02.544Z,2.28
2023-05-05T13:36:31.273Z,2.03
2023-05-05T13:38:59.656Z,2.35
2023-05-05T13:41:28.169Z,2.05
2023-05-05T13:43:56.702Z,2.50
2023-05-05T13:46:26.650Z,5.88
2023-05-05T13:48:56.781Z,2.42
2023-05-05T13:51:25.521Z,2.30
2023-05-05T13:53:54.145Z,4.45
2023-05-05T13:56:26.212Z,2.17
2023-05-05T13:58:54.910Z,12.27
2023-05-05T14:01:25.115Z,20.15
2023-05-05T14:03:55.534Z,15.00
2023-05-05T14:06:26.310Z,8.75
2023-05-05T14:08:54.818Z,5.50
2023-05-05T14:11:23.511Z,10.18
2023-05-05T14:13:52.071Z,10.10
2023-05-05T14:16:20.678Z,5.60
2023-05-05T14:18:50.468Z,6.63
2023-05-05T14:21:21.190Z,4.00
2023-05-05T14:23:49.777Z,2.80
2023-05-05T14:26:18.435Z,3.83
2023-05-05T14:28:49.606Z,3.17
2023-05-05T14:31:18.698Z,6.40
2023-05-05T14:33:47.085Z,4.80
2023-05-05T14:36:17.317Z,3.00
2023-05-05T14:38:45.708Z,5.10
2023-05-05T14:41:14.145Z,3.97
2023-05-05T14:43:42.544Z,4.20
2023-05-05T14:46:11.238Z,4.60
2023-05-05T14:48:39.710Z,2.50
2023-05-05T14:51:08.172Z,5.75
2023-05-05T14:53:38.059Z,2.67
2023-05-05T14:56:07.995Z,2.97
2023-05-05T14:58:36.476Z,2.42
2023-05-05T15:01:05.182Z,3.83
2023-05-05T15:03:33.751Z,3.50
2023-05-05T15:06:02.278Z,2.85
2023-05-05T15:08:30.915Z,2.30
2023-05-05T15:11:00.707Z,5.03
2023-05-05T15:13:29.860Z,2.55
2023-05-05T15:15:58.276Z,2.90
2023-05-05T15:18:26.676Z,3.78
2023-05-05T15:20:55.185Z,3.08
2023-05-05T15:23:23.555Z,2.70
2023-05-05T15:25:52.076Z,2.50
2023-05-05T15:28:21.889Z,2.72
2023-05-05T15:30:50.312Z,2.65
2023-05-05T15:33:18.823Z,4.80
2023-05-05T15:35:47.190Z,2.30
2023-05-05T15:38:15.674Z,2.35
2023-05-05T15:40:47.196Z,2.70
2023-05-05T15:43:17.499Z,4.28
2023-05-05T15:45:47.319Z,2.97
2023-05-05T15:48:15.858Z,2.72
2023-05-05T15:50:44.378Z,2.72
2023-05-05T15:53:13.017Z,2.80
2023-05-05T15:55:41.832Z,2.60
2023-05-05T15:58:10.207Z,2.55
2023-05-05T16:00:38.796Z,2.70
2023-05-05T16:03:08.869Z,4.13
2023-05-05T16:05:37.275Z,2.97
2023-05-05T16:08:09.820Z,3.30
2023-05-05T16:10:38.445Z,2.40
2023-05-05T16:13:07.108Z,3.78
2023-05-05T16:15:36.391Z,2.80
2023-05-05T16:18:05.096Z,2.47
2023-05-05T16:20:35.105Z,2.70
2023-05-05T16:23:03.526Z,2.92
2023-05-05T16:25:32.012Z,3.88
2023-05-05T16:28:01.732Z,2.85
2023-05-05T16:30:30.472Z,3.85
2023-05-05T16:32:59.047Z,3.80
2023-05-05T16:35:27.485Z,4.07
2023-05-05T16:37:57.632Z,4.80
2023-05-05T16:40:25.991Z,4.03
2023-05-05T16:42:54.429Z,3.08
2023-05-05T16:45:24.478Z,3.20
2023-05-05T16:47:53.044Z,3.85
2023-05-05T16:50:21.625Z,4.63
2023-05-05T16:52:50.197Z,3.17
2023-05-05T16:55:20.218Z,4.32
2023-05-05T16:57:48.717Z,5.05
2023-05-05T17:00:17.730Z,4.70
2023-05-05T17:02:46.362Z,3.53
2023-05-05T17:05:14.844Z,2.30
2023-05-05T17:07:43.413Z,2.95
2023-05-05T17:10:12.397Z,3.85
2023-05-05T17:12:42.298Z,4.35
2023-05-05T17:15:11.892Z,2.92
2023-05-05T17:17:41.651Z,4.40
2023-05-05T17:20:12.987Z,2.50
2023-05-05T17:22:41.397Z,2.72
2023-05-05T17:25:11.368Z,2.40
2023-05-05T17:27:41.992Z,2.70
2023-05-05T17:30:11.749Z,6.72
2023-05-05T17:32:40.322Z,4.13
2023-05-05T17:35:09.773Z,2.42
2023-05-05T17:37:38.390Z,2.60
2023-05-05T17:40:08.301Z,2.78
2023-05-05T17:42:36.895Z,2.63
2023-05-05T17:45:08.629Z,2.50
2023-05-05T17:47:37.532Z,3.95
2023-05-05T17:50:07.552Z,2.67
2023-05-05T17:52:36.132Z,2.83
2023-05-05T17:55:04.679Z,2.47
2023-05-05T17:57:33.459Z,2.28
2023-05-05T18:00:07.230Z,2.50
2023-05-05T18:02:36.998Z,2.92
2023-05-05T18:05:06.090Z,3.15
2023-05-05T18:07:34.924Z,2.60
2023-05-05T18:10:03.494Z,3.13
2023-05-05T18:12:31.897Z,2.97
2023-05-05T18:15:01.659Z,2.80
2023-05-05T18:17:31.415Z,2.55
2023-05-05T18:19:59.782Z,3.15
2023-05-05T18:22:28.415Z,2.85
2023-05-05T18:24:59.149Z,2.55
2023-05-05T18:27:27.888Z,2.58
2023-05-05T18:29:56.518Z,4.10
2023-05-05T18:32:25.037Z,5.68
2023-05-05T18:34:54.933Z,2.50
2023-05-05T18:37:23.453Z,2.67
2023-05-05T18:39:52.262Z,4.45
2023-05-05T18:42:21.191Z,3.22
2023-05-05T18:44:49.874Z,2.70
2023-05-05T18:47:18.280Z,2.72
2023-05-05T18:49:46.671Z,2.95
2023-05-05T18:52:17.045Z,4.30
2023-05-05T18:54:45.736Z,2.90
2023-05-05T18:57:14.798Z,2.88
2023-05-05T18:59:43.172Z,2.53
2023-05-05T19:02:11.678Z,12.55
2023-05-05T19:04:41.369Z,7.05
2023-05-05T19:07:10.054Z,7.30
2023-05-05T19:09:39.926Z,18.08
2023-05-05T19:12:08.629Z,18.27
2023-05-05T19:14:37.182Z,15.35
2023-05-05T19:17:05.779Z,24.08
2023-05-05T19:19:34.258Z,20.08
2023-05-05T19:22:03.587Z,11.07
2023-05-05T19:24:32.278Z,9.25
2023-05-05T19:27:03.032Z,6.57
2023-05-05T19:29:32.370Z,8.57
2023-05-05T19:32:00.850Z,8.65
2023-05-05T19:34:29.430Z,10.15
2023-05-05T19:36:57.879Z,9.57
2023-05-05T19:39:26.619Z,7.63
2023-05-05T19:41:55.145Z,12.70
2023-05-05T19:44:25.521Z,11.05
2023-05-05T19:46:54.591Z,10.38
2023-05-05T19:49:23.288Z,9.60
2023-05-05T19:51:52.910Z,9.90
2023-05-05T19:54:22.006Z,10.40
2023-05-05T19:56:50.607Z,10.95
2023-05-05T19:59:19.276Z,11.48
2023-05-05T20:01:49.350Z,11.68
2023-05-05T20:04:18.099Z,10.88
2023-05-05T20:06:46.620Z,9.07
2023-05-05T20:09:15.423Z,9.60
2023-05-05T20:11:44.058Z,9.95
2023-05-05T20:14:12.465Z,7.75
2023-05-05T20:16:42.036Z,8.02
2023-05-05T20:19:12.252Z,10.57
2023-05-05T20:21:41.164Z,7.40
2023-05-05T20:24:10.004Z,8.95
2023-05-05T20:26:38.424Z,5.88
2023-05-05T20:29:06.841Z,8.07
2023-05-05T20:31:35.990Z,11.25
2023-05-05T20:34:04.374Z,8.93
2023-05-05T20:36:34.176Z,10.52
2023-05-05T20:39:02.663Z,7.85
2023-05-05T20:41:31.095Z,4.97
2023-05-05T20:43:59.632Z,6.10
2023-05-05T20:46:28.057Z,9.73
2023-05-05T20:48:56.474Z,6.20
2023-05-05T20:51:25.055Z,10.23
2023-05-05T20:53:54.822Z,6.43
2023-05-05T20:56:23.356Z,8.93
2023-05-05T20:58:51.776Z,7.35
2023-05-05T21:01:20.763Z,7.85
2023-05-05T21:03:49.260Z,7.13
2023-05-05T21:06:19.549Z,5.80
2023-05-05T21:08:48.280Z,6.88
2023-05-05T21:11:18.032Z,6.90
2023-05-05T21:13:46.631Z,9.40
2023-05-05T21:16:15.030Z,6.22
2023-05-05T21:18:46.889Z,7.35
2023-05-05T21:21:15.419Z,5.72
2023-05-05T21:23:43.847Z,5.20
2023-05-05T21:26:12.387Z,9.68
2023-05-05T21:28:42.276Z,9.38
2023-05-05T21:31:21.800Z,6.80
2023-05-05T21:33:50.774Z,4.97
2023-05-05T21:36:19.645Z,6.05
2023-05-05T21:38:48.146Z,6.45
2023-05-05T21:41:16.761Z,5.18
2023-05-05T21:43:46.857Z,4.88
2023-05-05T21:46:17.244Z,5.32
2023-05-05T21:48:48.224Z,5.43
2023-05-05T21:51:17.369Z,5.90
2023-05-05T21:53:46.257Z,6.00
2023-05-05T21:56:14.843Z,5.15
2023-05-05T21:58:43.257Z,7.70
2023-05-05T22:01:13.602Z,4.35
2023-05-05T22:03:43.645Z,6.63
2023-05-05T22:06:12.472Z,5.82
2023-05-05T22:08:41.063Z,5.68
2023-05-05T22:11:09.405Z,5.88
2023-05-05T22:13:39.149Z,5.18
2023-05-05T22:16:08.281Z,7.20
2023-05-05T22:18:39.879Z,7.47
2023-05-05T22:21:09.096Z,4.82
2023-05-05T22:23:39.423Z,4.18
2023-05-05T22:26:08.184Z,4.50
2023-05-05T22:28:40.677Z,6.35
2023-05-05T22:31:11.246Z,4.95
2023-05-05T22:33:42.669Z,6.38
2023-05-05T22:36:15.535Z,5.82
2023-05-05T22:38:45.712Z,5.50
2023-05-05T22:41:16.116Z,3.72
2023-05-05T22:43:50.970Z,6.28
2023-05-05T22:46:26.681Z,4.57
2023-05-05T22:51:53.220Z,4.95
2023-05-05T22:54:23.958Z,5.78
2023-05-05T22:56:53.438Z,4.90
2023-05-05T22:59:30.203Z,3.88
2023-05-05T23:01:59.561Z,5.10
2023-05-05T23:04:30.852Z,5.53
2023-05-05T23:07:00.157Z,5.93
2023-05-05T23:09:29.097Z,3.50
2023-05-05T23:11:58.011Z,5.03
2023-05-05T23:14:26.894Z,3.42
2023-05-05T23:16:56.373Z,5.53
2023-05-05T23:19:25.684Z,4.72
2023-05-05T23:21:57.053Z,3.85
2023-05-05T23:24:26.087Z,5.55
2023-05-05T23:26:55.419Z,4.50
2023-05-05T23:29:26.769Z,6.07
2023-05-05T23:31:56.098Z,3.92
2023-05-05T23:34:25.804Z,6.80
2023-05-05T23:36:56.339Z,5.18
2023-05-05T23:39:25.492Z,4.75
2023-05-05T23:41:57.357Z,5.35
2023-05-05T23:44:29.328Z,6.40
2023-05-05T23:47:01.149Z,8.43
2023-05-05T23:49:30.519Z,3.80
2023-05-05T23:52:01.469Z,4.47
2023-05-05T23:54:33.808Z,5.45
2023-05-05T23:57:03.357Z,3.95
2023-05-05T23:59:33.163Z,3.65
